Spirit — WDD6522 — position and weather

sailwx.info

Track history (hours):
 
Tides and Currents Weather Stations Pressure Air Temp Water Temp Dewpoint Dewpoint Depression Visibility Wind Speed Wind Dir Waves Ship Positions

Spirit

Owner: Nitzsche, Christian, Greenwich, CT. More information available from US FCC via Universal Licensing System and Coast Guard Vessel Documentation Center.

Last reported at 2015-Aug-03 17:27 UTC. Time now 2015-Aug-03 23:25 UTC.
Position N 41°10' W 073°06'.

Length 13 m.

Type: Sailing vessel. MMSI: 367173990.

Date/timePositionNaut miles runAvg speedWind from/ knotsBaromVisibWave heightAir tempDewpointWater temp
2015-Aug-03 17:27N 41°10' W 073°06'5 6.1
2015-Aug-03 16:33N 41°11' W 072°59'6 6.3
2015-Aug-03 15:32N 41°12' W 072°51'6 6.5
2015-Aug-03 14:33N 41°13' W 072°42'6 5.7
2015-Aug-03 13:33N 41°14' W 072°35'5 0.2
2015-Aug-02 14:33N 41°16' W 072°28'8 8.0
2015-Aug-02 13:33N 41°15' W 072°18'8 8.1
2015-Aug-02 12:34N 41°16' W 072°07'6 0.3
2015-Aug-01 16:04N 41°16' W 072°00'1 2.5
2015-Aug-01 15:33N 41°17' W 071°59'6 6.1
2015-Aug-01 14:33N 41°18' W 071°51'5 5.4
2015-Aug-01 13:33N 41°16' W 071°44'6 5.8
2015-Aug-01 12:33N 41°13' W 071°38'3 2.6
2015-Aug-01 11:33N 41°12' W 071°35'0 0.0
2015-Jul-30 23:23N 41°12' W 071°35'0 0.0
2015-Jul-30 22:29N 41°12' W 071°35'0 0.0
2015-Jul-30 19:33N 41°12' W 071°35'0 0.0
2015-Jul-30 16:33N 41°12' W 071°35'0 0.0
2015-Jul-30 13:16N 41°12' W 071°35'0 0.0
2015-Jul-29 17:07N 41°12' W 071°35'2 3.1
2015-Jul-29 16:33N 41°13' W 071°35'5 5.4
2015-Jul-29 15:33N 41°16' W 071°30'8 7.5
2015-Jul-29 14:28N 41°20' W 071°20'7 7.3
2015-Jul-29 13:33N 41°22' W 071°11'6 6.0
2015-Jul-29 12:33N 41°24' W 071°04'6 6.3
2015-Jul-29 11:33N 41°26' W 070°56'2 0.1
2015-Jul-27 17:26N 41°27' W 070°53'  
Track history (hours):
 
Tides and Currents Weather Stations Pressure Air Temp Water Temp Dewpoint Dewpoint Depression Visibility Wind Speed Wind Dir Waves Ship Positions

Spirit

Owner: Nitzsche, Christian, Greenwich, CT. More information available from US FCC via Universal Licensing System and Coast Guard Vessel Documentation Center.

Last reported at 2015-Aug-03 17:27 UTC. Time now 2015-Aug-03 23:25 UTC.
Position N 41°10' W 073°06'.

Length 13 m.

Type: Sailing vessel. MMSI: 367173990.

Date/timePositionNaut miles runAvg speedWind from/ knotsBaromVisibWave heightAir tempDewpointWater temp
2015-Aug-03 17:27N 41°10' W 073°06'5 6.1
2015-Aug-03 16:33N 41°11' W 072°59'6 6.3
2015-Aug-03 15:32N 41°12' W 072°51'6 6.5
2015-Aug-03 14:33N 41°13' W 072°42'6 5.7
2015-Aug-03 13:33N 41°14' W 072°35'5 0.2
2015-Aug-02 14:33N 41°16' W 072°28'8 8.0
2015-Aug-02 13:33N 41°15' W 072°18'8 8.1
2015-Aug-02 12:34N 41°16' W 072°07'6 0.3
2015-Aug-01 16:04N 41°16' W 072°00'1 2.5
2015-Aug-01 15:33N 41°17' W 071°59'6 6.1
2015-Aug-01 14:33N 41°18' W 071°51'5 5.4
2015-Aug-01 13:33N 41°16' W 071°44'6 5.8
2015-Aug-01 12:33N 41°13' W 071°38'3 2.6
2015-Aug-01 11:33N 41°12' W 071°35'0 0.0
2015-Jul-30 23:23N 41°12' W 071°35'0 0.0
2015-Jul-30 22:29N 41°12' W 071°35'0 0.0
2015-Jul-30 19:33N 41°12' W 071°35'0 0.0
2015-Jul-30 16:33N 41°12' W 071°35'0 0.0
2015-Jul-30 13:16N 41°12' W 071°35'0 0.0
2015-Jul-29 17:07N 41°12' W 071°35'2 3.1
2015-Jul-29 16:33N 41°13' W 071°35'5 5.4
2015-Jul-29 15:33N 41°16' W 071°30'8 7.5
2015-Jul-29 14:28N 41°20' W 071°20'7 7.3
2015-Jul-29 13:33N 41°22' W 071°11'6 6.0
2015-Jul-29 12:33N 41°24' W 071°04'6 6.3
2015-Jul-29 11:33N 41°26' W 070°56'2 0.1
2015-Jul-27 17:26N 41°27' W 070°53'  

Dump ship's entire track history